Time;durP1;ratioP1;P1;durP2;ratioP2;P2;SDS_P1;SDS_P2;PMS_P1;PMS_P2;Temp;Humidity;BMP_temperature;BMP_pressure;BME280_temperature;BME280_humidity;BME280_pressure;Samples;Min_cycle;Max_cycle;Signal;HPM_P1;HPM_P2
2022/02/02 00:01:14;;;;;;;15.52;10.77;;;;;;;-142.02;100.00;61695.09;4977510;28;20433;-71
2022/02/02 00:03:45;;;;;;;14.02;9.30;;;;;;;-142.02;100.00;61695.09;4994188;28;20045;-72
2022/02/02 00:06:31;;;;;;;12.15;8.55;;;;;;;-142.02;100.00;61695.09;5012118;28;20042;-70
2022/02/02 00:09:09;;;;;;;7.90;5.90;;;;;;;-142.02;100.00;61695.09;5011572;28;20054;-70
2022/02/02 00:14:24;;;;;;;5.18;4.78;;;;;;;-142.02;100.00;61695.09;5011414;28;20049;-71
2022/02/02 00:21:46;;;;;;;5.72;5.28;;;;;;;-142.02;100.00;61695.09;4994097;28;20064;-70
2022/02/02 00:24:27;;;;;;;5.32;4.90;;;;;;;-142.02;100.00;61695.09;5011280;28;20050;-71
2022/02/02 00:26:56;;;;;;;4.38;4.07;;;;;;;-142.02;100.00;61695.09;4997236;28;20048;-71
2022/02/02 00:29:30;;;;;;;6.40;5.72;;;;;;;-142.02;100.00;61695.09;5014061;28;20050;-72
2022/02/02 00:32:05;;;;;;;5.47;4.97;;;;;;;-142.02;100.00;61695.09;5012297;28;20046;-73
2022/02/02 00:34:32;;;;;;;6.28;5.70;;;;;;;-142.02;100.00;61695.09;5014080;28;20049;-71
2022/02/02 00:36:59;;;;;;;7.95;7.20;;;;;;;-142.02;100.00;61695.09;5014312;28;20057;-72
2022/02/02 00:39:25;;;;;;;5.57;5.07;;;;;;;-142.02;100.00;61695.09;5013433;28;20038;-71
2022/02/02 00:41:56;;;;;;;6.95;6.35;;;;;;;-142.02;100.00;61695.09;4993027;28;20125;-71
2022/02/02 00:44:23;;;;;;;5.85;5.32;;;;;;;-142.02;100.00;61695.09;5010665;28;20477;-72
2022/02/02 00:46:49;;;;;;;6.00;5.50;;;;;;;-142.02;100.00;61695.09;4976867;28;20103;-70
2022/02/02 00:49:15;;;;;;;6.70;6.13;;;;;;;-142.02;100.00;61695.09;4976436;28;20070;-70
2022/02/02 00:51:49;;;;;;;5.78;5.28;;;;;;;-142.02;100.00;61695.09;5008783;28;20038;-70
2022/02/02 00:54:23;;;;;;;6.22;5.75;;;;;;;-142.02;100.00;61695.09;5012217;28;20057;-71
2022/02/02 00:56:50;;;;;;;6.03;5.53;;;;;;;-142.02;100.00;61695.09;5014162;28;20042;-71
2022/02/02 00:59:16;;;;;;;7.63;5.57;;;;;;;-142.02;100.00;61695.09;5015193;28;20041;-72
2022/02/02 01:01:42;;;;;;;7.15;6.55;;;;;;;-142.02;100.00;61695.09;5014683;28;20100;-71
2022/02/02 01:04:08;;;;;;;5.00;4.60;;;;;;;-142.02;100.00;61695.09;5016841;28;20418;-71
2022/02/02 01:06:39;;;;;;;6.43;5.82;;;;;;;-142.02;100.00;61695.09;5014494;28;20076;-72
2022/02/02 01:09:16;;;;;;;8.25;5.00;;;;;;;-142.02;100.00;61695.09;5015309;28;20042;-71
2022/02/02 01:30:04;;;;;;;5.05;4.65;;;;;;;-142.02;100.00;61695.09;5000164;28;20057;-71
2022/02/02 01:32:30;;;;;;;7.38;6.75;;;;;;;-142.02;100.00;61695.09;4998881;28;20063;-71
2022/02/02 01:34:56;;;;;;;6.57;5.53;;;;;;;-142.02;100.00;61695.09;5017335;28;20081;-70
2022/02/02 01:37:22;;;;;;;10.70;5.53;;;;;;;-142.02;100.00;61695.09;5020807;28;20081;-70
2022/02/02 01:39:56;;;;;;;6.30;5.80;;;;;;;-142.02;100.00;61695.09;5001797;28;20603;-72
2022/02/02 01:42:25;;;;;;;6.63;6.13;;;;;;;-142.02;100.00;61695.09;5019705;28;20050;-72
2022/02/02 01:45:37;;;;;;;5.85;5.07;;;;;;;-142.02;100.00;61695.09;5000242;28;20058;-70
2022/02/02 01:47:52;;;;;;;5.07;4.68;;;;;;;-142.02;100.00;61695.09;4989753;28;20115;-71
2022/02/02 01:50:23;;;;;;;4.95;4.55;;;;;;;-142.02;100.00;61695.09;4994928;28;20197;-71
2022/02/02 01:55:38;;;;;;;5.68;4.40;;;;;;;-142.02;100.00;61695.09;4994378;28;20054;-71
2022/02/02 02:00:53;;;;;;;5.25;4.70;;;;;;;-142.02;100.00;61695.09;5015672;28;20502;-71
2022/02/02 02:03:19;;;;;;;5.45;4.30;;;;;;;-142.02;100.00;61695.09;4982774;28;20046;-72
2022/02/02 02:05:45;;;;;;;5.10;4.70;;;;;;;-142.02;100.00;61695.09;4996953;28;20077;-72
2022/02/02 02:08:11;;;;;;;6.43;5.78;;;;;;;-142.02;100.00;61695.09;5015901;28;20046;-72
2022/02/02 02:10:38;;;;;;;5.15;4.68;;;;;;;-142.02;100.00;61695.09;5015194;28;20057;-71
2022/02/02 02:13:10;;;;;;;5.78;4.93;;;;;;;-142.02;100.00;61695.09;5015049;28;20088;-71
2022/02/02 02:15:36;;;;;;;6.47;5.97;;;;;;;-142.02;100.00;61695.09;5013171;28;20120;-70
2022/02/02 02:18:03;;;;;;;5.88;5.38;;;;;;;-142.02;100.00;61695.09;5012759;28;20128;-70
2022/02/02 02:20:30;;;;;;;8.07;7.40;;;;;;;-142.02;100.00;61695.09;4994758;28;20145;-71
2022/02/02 02:22:56;;;;;;;7.43;6.85;;;;;;;-142.02;100.00;61695.09;4995057;28;20461;-70
2022/02/02 02:25:27;;;;;;;5.72;5.22;;;;;;;-142.02;100.00;61695.09;5013341;28;20058;-70
2022/02/02 02:28:02;;;;;;;6.38;5.88;;;;;;;-142.02;100.00;61695.09;5013350;28;20085;-71
2022/02/02 02:30:43;;;;;;;6.10;5.60;;;;;;;-142.02;100.00;61695.09;5011352;28;20076;-72
2022/02/02 02:33:31;;;;;;;4.47;4.03;;;;;;;-142.02;100.00;61695.09;5013913;28;20534;-70
2022/02/02 02:57:25;;;;;;;6.07;5.57;;;;;;;-142.02;100.00;61695.09;4992823;28;20125;-72
2022/02/02 03:14:45;;;;;;;6.30;5.70;;;;;;;-142.02;100.00;61695.09;4951539;29;20455;-72
2022/02/02 03:30:25;;;;;;;3.20;3.00;;;;;;;-142.02;100.00;61695.09;4991060;28;20483;-72
2022/02/02 03:51:49;;;;;;;6.00;5.53;;;;;;;-142.02;100.00;61695.09;5009519;28;20541;-71
2022/02/02 03:59:46;;;;;;;5.05;4.65;;;;;;;-142.02;100.00;61695.09;5008272;28;20069;-71
2022/02/02 04:04:53;;;;;;;6.00;5.47;;;;;;;-142.02;100.00;61695.09;4992121;28;20156;-71
2022/02/02 04:07:30;;;;;;;6.88;5.45;;;;;;;-142.02;100.00;61695.09;5009677;28;20116;-72
2022/02/02 04:09:56;;;;;;;4.05;3.75;;;;;;;-142.02;100.00;61695.09;5009616;28;20045;-72
2022/02/02 04:17:52;;;;;;;4.10;3.80;;;;;;;-142.02;100.00;61695.09;5009363;28;20076;-71
2022/02/02 04:58:19;;;;;;;4.28;3.88;;;;;;;-142.02;100.00;61695.09;4977327;28;20050;-71
2022/02/02 05:06:16;;;;;;;6.07;5.57;;;;;;;-142.02;100.00;61695.09;4975662;28;20415;-71
2022/02/02 05:09:00;;;;;;;6.40;5.80;;;;;;;-142.02;100.00;61695.09;4993113;28;20081;-72
2022/02/02 05:11:48;;;;;;;6.10;4.90;;;;;;;-142.02;100.00;61695.09;4993078;28;20077;-72
2022/02/02 05:51:49;;;;;;;6.95;5.80;;;;;;;-142.02;100.00;61695.09;4993834;28;20045;-72
2022/02/02 05:54:18;;;;;;;4.50;4.15;;;;;;;-142.02;100.00;61695.09;5009663;28;20153;-70
2022/02/02 05:56:52;;;;;;;8.10;7.30;;;;;;;-142.02;100.00;61695.09;5010452;28;20046;-72
2022/02/02 05:59:20;;;;;;;4.82;4.43;;;;;;;-142.02;100.00;61695.09;5010666;28;20800;-72
2022/02/02 06:01:51;;;;;;;6.95;6.35;;;;;;;-142.02;100.00;61695.09;5009230;28;20170;-72
2022/02/02 06:04:20;;;;;;;;;;;;;;;-142.02;100.00;61695.09;5014854;28;20053;-72
2022/02/02 06:06:47;;;;;;;6.05;5.45;;;;;;;-142.02;100.00;61695.09;5029998;28;19921;-71
2022/02/02 06:09:14;;;;;;;7.13;6.53;;;;;;;-142.02;100.00;61695.09;5014736;28;20147;-71
2022/02/02 06:11:40;;;;;;;6.25;5.75;;;;;;;-142.02;100.00;61695.09;5010035;28;20073;-72
2022/02/02 06:14:06;;;;;;;6.05;5.53;;;;;;;-142.02;100.00;61695.09;4994057;28;20064;-72
2022/02/02 06:16:33;;;;;;;6.93;6.32;;;;;;;-142.02;100.00;61695.09;4992174;28;20046;-72
2022/02/02 06:19:01;;;;;;;7.68;6.40;;;;;;;-142.02;100.00;61695.09;4988052;28;20061;-72
2022/02/02 06:21:30;;;;;;;9.35;8.40;;;;;;;-142.02;100.00;61695.09;5025716;28;20054;-72
2022/02/02 06:24:09;;;;;;;7.53;6.82;;;;;;;-142.02;100.00;61695.09;4992677;28;20094;-71
2022/02/02 06:26:36;;;;;;;7.35;6.70;;;;;;;-142.02;100.00;61695.09;4976775;28;20505;-72
2022/02/02 06:29:04;;;;;;;6.63;6.10;;;;;;;-142.02;100.00;61695.09;4992554;28;20068;-72
2022/02/02 06:31:33;;;;;;;6.00;5.45;;;;;;;-142.02;100.00;61695.09;5009771;28;20074;-71
2022/02/02 06:33:59;;;;;;;6.35;5.75;;;;;;;-142.02;100.00;61695.09;4976480;28;20049;-71
2022/02/02 06:36:31;;;;;;;6.00;5.40;;;;;;;-142.02;100.00;61695.09;5009535;28;20042;-72
2022/02/02 06:38:58;;;;;;;9.48;8.15;;;;;;;-142.02;100.00;61695.09;5029443;28;20583;-72
2022/02/02 06:41:28;;;;;;;12.52;9.10;;;;;;;-142.02;100.00;61695.09;5029178;28;20053;-72
2022/02/02 06:43:54;;;;;;;5.70;4.85;;;;;;;-142.02;100.00;61695.09;4997582;28;20441;-71
2022/02/02 06:46:24;;;;;;;7.97;6.70;;;;;;;-142.02;100.00;61695.09;5009527;28;20049;-73
2022/02/02 06:48:51;;;;;;;6.57;5.97;;;;;;;-142.02;100.00;61695.09;4992764;28;20054;-73
2022/02/02 06:51:24;;;;;;;5.70;5.20;;;;;;;-142.02;100.00;61695.09;5005169;28;20513;-72
2022/02/02 06:53:58;;;;;;;6.20;5.50;;;;;;;-142.02;100.00;61695.09;4998774;28;20078;-73
2022/02/02 06:56:39;;;;;;;8.35;7.63;;;;;;;-142.02;100.00;61695.09;4970364;28;20052;-73
2022/02/02 07:04:50;;;;;;;6.07;5.47;;;;;;;-142.02;100.00;61695.09;4993522;28;20058;-72
2022/02/02 07:07:53;;;;;;;7.47;6.35;;;;;;;-142.02;100.00;61695.09;5010044;28;20046;-72
2022/02/02 07:10:25;;;;;;;8.45;7.75;;;;;;;-142.02;100.00;61695.09;5011899;28;20046;-72
2022/02/02 07:16:25;;;;;;;7.40;6.55;;;;;;;-142.02;100.00;61695.09;5005104;28;20065;-71
2022/02/02 07:32:21;;;;;;;5.28;4.55;;;;;;;-142.02;100.00;61695.09;5009502;28;20140;-73
2022/02/02 07:35:12;;;;;;;7.70;6.93;;;;;;;-142.02;100.00;61695.09;4991391;28;20053;-73
2022/02/02 07:37:47;;;;;;;6.30;5.70;;;;;;;-142.02;100.00;61695.09;5008448;28;20116;-71
2022/02/02 07:40:13;;;;;;;6.85;5.85;;;;;;;-142.02;100.00;61695.09;5007804;28;20045;-71
2022/02/02 07:42:46;;;;;;;5.15;4.72;;;;;;;-142.02;100.00;61695.09;4991083;28;20077;-71
2022/02/02 07:45:12;;;;;;;7.53;6.82;;;;;;;-142.02;100.00;61695.09;5008945;28;20450;-73
2022/02/02 07:48:08;;;;;;;6.95;6.45;;;;;;;-142.02;100.00;61695.09;5007283;28;20054;-72
2022/02/02 07:50:35;;;;;;;5.65;5.10;;;;;;;-142.02;100.00;61695.09;4992184;28;20041;-72
2022/02/02 07:53:11;;;;;;;5.43;4.93;;;;;;;-142.02;100.00;61695.09;4977256;28;20053;-72
2022/02/02 07:55:40;;;;;;;5.65;5.22;;;;;;;-142.02;100.00;61695.09;4996801;28;20155;-72
2022/02/02 07:58:07;;;;;;;7.35;6.75;;;;;;;-142.02;100.00;61695.09;4980306;28;20049;-72
2022/02/02 08:00:35;;;;;;;7.15;6.55;;;;;;;-142.02;100.00;61695.09;5028334;28;20049;-72
2022/02/02 08:03:09;;;;;;;5.80;5.18;;;;;;;-142.02;100.00;61695.09;4986844;28;20061;-72
2022/02/02 08:05:39;;;;;;;6.10;5.60;;;;;;;-142.02;100.00;61695.09;4990932;28;20107;-72
2022/02/02 08:10:42;;;;;;;5.82;4.40;;;;;;;-142.02;100.00;61695.09;4992677;28;20052;-71
2022/02/02 08:13:38;;;;;;;6.63;6.03;;;;;;;-142.02;100.00;61695.09;4974799;28;20062;-71
2022/02/02 08:16:01;;;;;;;6.75;6.05;;;;;;;-142.02;100.00;61695.09;5009960;28;20093;-71
2022/02/02 08:18:27;;;;;;;4.93;4.53;;;;;;;-142.02;100.00;61695.09;4977948;28;20066;-72
2022/02/02 08:20:54;;;;;;;3.78;3.53;;;;;;;-142.02;100.00;61695.09;5004876;28;20046;-70
2022/02/02 08:23:21;;;;;;;5.25;4.75;;;;;;;-142.02;100.00;61695.09;5000808;28;20529;-70
2022/02/02 08:25:47;;;;;;;5.38;4.88;;;;;;;-142.02;100.00;61695.09;5008828;28;20128;-70
2022/02/02 08:28:16;;;;;;;5.13;4.72;;;;;;;-142.02;100.00;61695.09;5026645;28;20497;-70
2022/02/02 08:30:41;;;;;;;5.40;4.90;;;;;;;-142.02;100.00;61695.09;4993678;28;20084;-70
2022/02/02 08:33:13;;;;;;;5.35;4.93;;;;;;;-142.02;100.00;61695.09;5010244;28;20627;-70
2022/02/02 08:35:43;;;;;;;4.80;4.45;;;;;;;-142.02;100.00;61695.09;5026112;28;20038;-71
2022/02/02 08:38:17;;;;;;;5.15;4.75;;;;;;;-142.02;100.00;61695.09;5026035;28;20053;-71
2022/02/02 08:43:25;;;;;;;5.32;4.82;;;;;;;-142.02;100.00;61695.09;5024607;28;20046;-70
2022/02/02 08:45:55;;;;;;;6.43;5.90;;;;;;;-142.02;100.00;61695.09;4989777;28;20065;-71
2022/02/02 08:48:25;;;;;;;5.47;4.85;;;;;;;-142.02;100.00;61695.09;4988857;28;20104;-70
2022/02/02 08:50:56;;;;;;;6.57;5.97;;;;;;;-142.02;100.00;61695.09;4990419;28;20053;-70
2022/02/02 08:58:42;;;;;;;5.65;5.15;;;;;;;-142.02;100.00;61695.09;4994016;28;20542;-70
2022/02/02 09:01:27;;;;;;;4.82;4.47;;;;;;;-142.02;100.00;61695.09;5008366;28;20049;-70
2022/02/02 09:06:38;;;;;;;3.85;3.55;;;;;;;-142.02;100.00;61695.09;5007907;28;20311;-70
2022/02/02 09:09:12;;;;;;;3.78;3.50;;;;;;;-142.02;100.00;61695.09;5008332;28;20053;-70
2022/02/02 09:34:06;;;;;;;5.47;4.97;;;;;;;-142.02;100.00;61695.09;4993607;28;20099;-70
2022/02/02 09:36:34;;;;;;;7.03;4.43;;;;;;;-142.02;100.00;61695.09;5011221;28;20056;-70
2022/02/02 09:39:06;;;;;;;4.30;4.00;;;;;;;-142.02;100.00;61695.09;4993775;28;20053;-70
2022/02/02 09:41:45;;;;;;;5.35;4.85;;;;;;;-142.02;100.00;61695.09;4978661;28;20125;-70
2022/02/02 09:44:14;;;;;;;5.88;5.30;;;;;;;-142.02;100.00;61695.09;4978903;28;20196;-70
2022/02/02 09:52:17;;;;;;;5.18;4.68;;;;;;;-142.02;100.00;61695.09;4993147;28;20056;-70
2022/02/02 10:07:54;;;;;;;2.85;2.65;;;;;;;-142.02;100.00;61695.09;5008992;28;20433;-70
2022/02/02 10:15:31;;;;;;;4.20;3.88;;;;;;;-142.02;100.00;61695.09;4992159;28;20087;-70
2022/02/02 10:18:09;;;;;;;3.28;3.05;;;;;;;-142.02;100.00;61695.09;4990912;28;20108;-70
2022/02/02 10:20:36;;;;;;;5.35;4.07;;;;;;;-142.02;100.00;61695.09;5009344;28;20057;-70
2022/02/02 10:23:03;;;;;;;3.80;3.50;;;;;;;-142.02;100.00;61695.09;4990974;28;20144;-70
2022/02/02 10:25:37;;;;;;;5.82;5.07;;;;;;;-142.02;100.00;61695.09;5008556;28;20072;-70
2022/02/02 10:28:13;;;;;;;2.90;2.70;;;;;;;-142.02;100.00;61695.09;4990339;28;20129;-70
2022/02/02 10:30:41;;;;;;;3.75;3.35;;;;;;;-142.02;100.00;61695.09;5008019;28;20054;-71
2022/02/02 10:33:17;;;;;;;4.15;3.85;;;;;;;-142.02;100.00;61695.09;4978994;28;20422;-70
2022/02/02 10:35:50;;;;;;;5.55;4.25;;;;;;;-142.02;100.00;61695.09;4988698;28;20518;-70
2022/02/02 10:38:22;;;;;;;4.45;4.15;;;;;;;-142.02;100.00;61695.09;4988798;28;20065;-69
2022/02/02 10:40:56;;;;;;;3.40;3.20;;;;;;;-142.02;100.00;61695.09;4988414;28;20446;-70
2022/02/02 10:43:35;;;;;;;4.93;4.43;;;;;;;-142.02;100.00;61695.09;4990086;28;20574;-70
2022/02/02 10:46:17;;;;;;;3.58;3.28;;;;;;;-142.02;100.00;61695.09;4993225;28;20052;-70
2022/02/02 10:48:48;;;;;;;5.03;4.63;;;;;;;-142.02;100.00;61695.09;5008245;28;20057;-72
2022/02/02 10:51:29;;;;;;;4.38;3.97;;;;;;;-142.02;100.00;61695.09;5007824;28;20076;-72
2022/02/02 10:56:41;;;;;;;7.10;4.03;;;;;;;-142.02;100.00;61695.09;5002109;28;20157;-70
2022/02/02 11:07:55;;;;;;;4.35;3.95;;;;;;;-142.02;100.00;61695.09;5020512;28;20521;-72
2022/02/02 11:10:22;;;;;;;2.72;2.63;;;;;;;-142.02;100.00;61695.09;4979703;28;20079;-71
2022/02/02 11:12:48;;;;;;;4.63;4.10;;;;;;;-142.02;100.00;61695.09;5028677;28;20089;-70
2022/02/02 11:15:23;;;;;;;6.30;4.32;;;;;;;-142.02;100.00;61695.09;4979649;28;20089;-71
2022/02/02 11:18:02;;;;;;;4.72;3.83;;;;;;;-142.02;100.00;61695.09;4991399;28;20608;-71
2022/02/02 11:20:29;;;;;;;5.10;4.05;;;;;;;-142.02;100.00;61695.09;5009209;28;20057;-71
2022/02/02 11:22:57;;;;;;;4.40;3.85;;;;;;;-142.02;100.00;61695.09;4990459;28;20113;-71
2022/02/02 11:25:24;;;;;;;6.80;4.65;;;;;;;-142.02;100.00;61695.09;5007858;28;20395;-71
2022/02/02 11:27:54;;;;;;;5.40;4.13;;;;;;;-142.02;100.00;61695.09;5008822;28;20056;-71
2022/02/02 11:30:24;;;;;;;5.10;4.20;;;;;;;-142.02;100.00;61695.09;5020951;28;20049;-71
2022/02/02 11:32:52;;;;;;;2.85;2.53;;;;;;;-142.02;100.00;61695.09;5028857;28;20132;-71
2022/02/02 11:35:28;;;;;;;5.70;5.07;;;;;;;-142.02;100.00;61695.09;5017894;28;20050;-71
2022/02/02 11:38:01;;;;;;;4.28;3.75;;;;;;;-142.02;100.00;61695.09;5008702;28;20052;-71
2022/02/02 11:40:32;;;;;;;4.78;4.38;;;;;;;-142.02;100.00;61695.09;4991508;28;20064;-71
2022/02/02 11:43:12;;;;;;;4.53;3.93;;;;;;;-142.02;100.00;61695.09;4991463;28;20050;-71
2022/02/02 11:45:45;;;;;;;6.70;4.40;;;;;;;-142.02;100.00;61695.09;4993431;28;20056;-70
2022/02/02 11:48:19;;;;;;;4.88;4.47;;;;;;;-142.02;100.00;61695.09;5001591;28;20045;-71
2022/02/02 11:50:48;;;;;;;4.35;4.05;;;;;;;-142.02;100.00;61695.09;5010005;28;20577;-72
2022/02/02 11:53:49;;;;;;;7.10;4.90;;;;;;;-142.02;100.00;61695.09;5009143;28;20148;-72
2022/02/02 11:56:15;;;;;;;4.65;4.22;;;;;;;-142.02;100.00;61695.09;4975742;28;20511;-72
2022/02/02 11:58:42;;;;;;;4.55;3.33;;;;;;;-142.02;100.00;61695.09;4990126;28;20046;-72
2022/02/02 12:01:24;;;;;;;4.45;4.10;;;;;;;-142.02;100.00;61695.09;5009706;28;20144;-72
2022/02/02 12:09:15;;;;;;;5.93;4.43;;;;;;;-142.02;100.00;61695.09;5022498;28;20546;-72
2022/02/02 12:20:51;;;;;;;6.10;5.50;;;;;;;-142.02;100.00;61695.09;5008459;28;20551;-73
2022/02/02 13:00:24;;;;;;;8.27;5.68;;;;;;;-142.02;100.00;61695.09;5016428;28;20056;-72
2022/02/02 13:02:51;;;;;;;8.65;5.60;;;;;;;-142.02;100.00;61695.09;4998089;28;20577;-72
2022/02/02 13:05:21;;;;;;;5.55;4.30;;;;;;;-142.02;100.00;61695.09;5015776;28;20457;-72
2022/02/02 13:07:48;;;;;;;9.65;5.70;;;;;;;-142.02;100.00;61695.09;5016270;28;20050;-72
2022/02/02 13:10:20;;;;;;;7.70;5.47;;;;;;;-142.02;100.00;61695.09;4963095;28;20096;-72
2022/02/02 13:12:55;;;;;;;8.52;6.85;;;;;;;-142.02;100.00;61695.09;5001092;28;20054;-72
2022/02/02 13:15:48;;;;;;;9.88;5.60;;;;;;;-142.02;100.00;61695.09;5011982;28;20063;-70
2022/02/02 13:18:36;;;;;;;5.90;5.25;;;;;;;-142.02;100.00;61695.09;5013638;28;20057;-71
2022/02/02 13:36:59;;;;;;;6.72;5.00;;;;;;;-142.02;100.00;61695.09;4987229;28;20085;-71
2022/02/02 13:43:08;;;;;;;7.75;5.45;;;;;;;-142.02;100.00;61695.09;5008344;28;20041;-72
2022/02/02 13:50:57;;;;;;;8.73;5.85;;;;;;;-142.02;100.00;61695.09;4992170;28;20113;-70
2022/02/02 14:07:27;;;;;;;8.65;6.22;;;;;;;-142.02;100.00;61695.09;5025684;28;20569;-72
2022/02/02 14:10:05;;;;;;;11.75;7.85;;;;;;;-142.02;100.00;61695.09;5008661;28;20050;-73
2022/02/02 14:32:07;;;;;;;8.32;7.03;;;;;;;-142.02;100.00;61695.09;5023764;28;20533;-72
2022/02/02 14:34:33;;;;;;;11.82;6.63;;;;;;;-142.02;100.00;61695.09;5011723;28;20576;-74
2022/02/02 14:36:59;;;;;;;10.35;7.30;;;;;;;-142.02;100.00;61695.09;5014648;28;20063;-73
2022/02/02 14:39:39;;;;;;;14.73;7.30;;;;;;;-142.02;100.00;61695.09;5011704;28;20121;-74
2022/02/02 14:42:13;;;;;;;12.02;9.35;;;;;;;-142.02;100.00;61695.09;5023050;28;20061;-72
2022/02/02 14:44:41;;;;;;;8.32;6.90;;;;;;;-142.02;100.00;61695.09;5024601;28;20573;-73
2022/02/02 14:47:10;;;;;;;11.50;7.43;;;;;;;-142.02;100.00;61695.09;4992159;28;20069;-74
2022/02/02 14:52:29;;;;;;;8.93;6.30;;;;;;;-142.02;100.00;61695.09;5002507;28;20581;-73
2022/02/02 15:27:37;;;;;;;7.47;5.22;;;;;;;-142.02;100.00;61695.09;5002392;28;20100;-71
2022/02/02 15:30:47;;;;;;;5.90;5.15;;;;;;;-142.02;100.00;61695.09;4995104;28;20089;-73
2022/02/02 15:32:59;;;;;;;7.15;4.68;;;;;;;-142.02;100.00;61695.09;4974921;28;20057;-72
2022/02/02 15:35:27;;;;;;;8.38;6.13;;;;;;;-142.02;100.00;61695.09;4998028;28;20141;-72
2022/02/02 15:38:03;;;;;;;10.48;6.55;;;;;;;-142.02;100.00;61695.09;4995064;28;20054;-71
2022/02/02 15:40:37;;;;;;;10.10;7.53;;;;;;;-142.02;100.00;61695.09;4996095;28;20635;-73
2022/02/02 15:57:40;;;;;;;9.05;6.45;;;;;;;-142.02;100.00;61695.09;4993453;28;20046;-71
2022/02/02 15:59:25;;;;;;;8.07;5.85;;;;;;;-142.02;100.00;61695.09;4994488;28;20510;-71
2022/02/02 16:02:12;;;;;;;4.78;4.35;;;;;;;-142.02;100.00;61695.09;4982849;28;20509;-71
2022/02/02 16:04:39;;;;;;;5.88;4.40;;;;;;;-142.02;100.00;61695.09;4999552;28;20046;-72
2022/02/02 16:07:07;;;;;;;4.10;3.65;;;;;;;-142.02;100.00;61695.09;4978698;28;20089;-71
2022/02/02 16:09:55;;;;;;;4.93;3.63;;;;;;;-142.02;100.00;61695.09;4998954;28;20141;-72
2022/02/02 16:12:31;;;;;;;3.97;3.67;;;;;;;-142.02;100.00;61695.09;4994141;28;20057;-71
2022/02/02 16:15:16;;;;;;;5.95;4.07;;;;;;;-142.02;100.00;61695.09;4978914;28;21017;-71
2022/02/02 16:36:09;;;;;;;3.83;3.53;;;;;;;-142.02;100.00;61695.09;5000859;28;20057;-72
2022/02/02 16:38:38;;;;;;;4.45;4.05;;;;;;;-142.02;100.00;61695.09;5000733;28;20533;-71
2022/02/02 16:42:55;;;;;;;5.30;4.93;;;;;;;-142.02;100.00;61695.09;4999512;28;20077;-71
2022/02/02 16:43:51;;;;;;;6.40;5.78;;;;;;;-142.02;100.00;61695.09;4997449;28;20526;-70
2022/02/02 16:46:17;;;;;;;7.63;6.07;;;;;;;-142.02;100.00;61695.09;5001041;28;20151;-70
2022/02/02 16:48:43;;;;;;;5.85;5.35;;;;;;;-142.02;100.00;61695.09;5000302;28;20132;-70
2022/02/02 16:51:09;;;;;;;7.00;6.40;;;;;;;-142.02;100.00;61695.09;4981711;28;20046;-70
2022/02/02 16:53:44;;;;;;;10.32;6.72;;;;;;;-142.02;100.00;61695.09;4998879;28;20103;-71
2022/02/02 16:56:20;;;;;;;3.33;3.13;;;;;;;-142.02;100.00;61695.09;4996421;28;20078;-71
2022/02/02 17:31:14;;;;;;;8.00;7.18;;;;;;;-142.02;100.00;61695.09;4980645;28;20054;-72
2022/02/02 17:33:48;;;;;;;6.45;5.38;;;;;;;-142.02;100.00;61695.09;5002531;28;20046;-71
2022/02/02 17:41:51;;;;;;;5.80;4.35;;;;;;;-142.02;100.00;61695.09;4997914;28;20045;-71
2022/02/02 18:03:19;;;;;;;6.22;5.28;;;;;;;-142.02;100.00;61695.09;5003147;28;20430;-70
2022/02/02 18:18:54;;;;;;;5.93;5.32;;;;;;;-142.02;100.00;61695.09;4936971;28;20056;-70
2022/02/02 18:21:18;;;;;;;4.97;4.50;;;;;;;-142.02;100.00;61695.09;4946707;28;20049;-70
2022/02/02 18:24:01;;;;;;;6.90;4.40;;;;;;;-142.02;100.00;61695.09;4944674;28;20559;-69
2022/02/02 18:31:48;;;;;;;5.35;4.95;;;;;;;-142.02;100.00;61695.09;4945529;28;20511;-68
2022/02/02 18:58:14;;;;;;;8.93;8.02;;;;;;;-142.02;100.00;61695.09;4981749;28;20580;-69
2022/02/02 19:01:09;;;;;;;6.60;5.47;;;;;;;-142.02;100.00;61695.09;5004050;28;20054;-69
2022/02/02 19:04:34;;;;;;;8.70;6.22;;;;;;;-142.02;100.00;61695.09;4985836;28;20074;-69
2022/02/02 19:31:26;;;;;;;7.75;6.22;;;;;;;-142.02;100.00;61695.09;4998354;28;20050;-70
2022/02/02 19:55:25;;;;;;;9.13;7.22;;;;;;;-142.02;100.00;61695.09;4995256;28;20054;-69
2022/02/02 20:06:21;;;;;;;7.40;6.05;;;;;;;-142.02;100.00;61695.09;4995029;28;20084;-69
2022/02/02 20:11:27;;;;;;;11.52;9.00;;;;;;;-142.02;100.00;61695.09;4998412;28;20132;-69
2022/02/02 20:13:53;;;;;;;15.30;7.97;;;;;;;-142.02;100.00;61695.09;4998564;28;20050;-69
2022/02/02 20:16:20;;;;;;;9.88;8.05;;;;;;;-142.02;100.00;61695.09;4980072;28;20042;-69
2022/02/02 20:18:48;;;;;;;9.93;8.90;;;;;;;-142.02;100.00;61695.09;4979102;28;20046;-68
2022/02/02 20:21:18;;;;;;;12.90;11.55;;;;;;;-142.02;100.00;61695.09;4998163;28;20085;-68
2022/02/02 20:23:47;;;;;;;14.90;8.65;;;;;;;-142.02;100.00;61695.09;4999267;28;20458;-68
2022/02/02 20:26:16;;;;;;;11.00;9.18;;;;;;;-142.02;100.00;61695.09;4997971;28;20112;-69
2022/02/02 20:28:42;;;;;;;14.40;10.10;;;;;;;-142.02;100.00;61695.09;4978627;28;20112;-68
2022/02/02 20:31:08;;;;;;;13.85;9.52;;;;;;;-142.02;100.00;61695.09;5001407;28;20042;-68
2022/02/02 20:33:34;;;;;;;9.77;7.95;;;;;;;-142.02;100.00;61695.09;5016854;28;20080;-68
2022/02/02 20:36:00;;;;;;;5.18;4.70;;;;;;;-142.02;100.00;61695.09;5028191;28;20041;-69
2022/02/02 20:38:27;;;;;;;12.00;8.23;;;;;;;-142.02;100.00;61695.09;5009922;28;20402;-68
2022/02/02 20:40:53;;;;;;;9.32;7.00;;;;;;;-142.02;100.00;61695.09;5027038;28;20060;-68
2022/02/02 20:43:30;;;;;;;6.80;6.10;;;;;;;-142.02;100.00;61695.09;4993369;28;20053;-68
2022/02/02 21:10:27;;;;;;;13.73;9.63;;;;;;;-142.02;100.00;61695.09;5001194;28;20050;-68
2022/02/02 21:15:39;;;;;;;17.30;8.15;;;;;;;-142.02;100.00;61695.09;5012536;28;20049;-68
2022/02/02 21:18:13;;;;;;;10.80;8.15;;;;;;;-142.02;100.00;61695.09;5012748;28;20049;-67
2022/02/02 21:20:47;;;;;;;14.68;7.22;;;;;;;-142.02;100.00;61695.09;5012768;28;20068;-67
2022/02/02 21:28:31;;;;;;;14.75;10.20;;;;;;;-142.02;100.00;61695.09;4994993;28;20422;-67
2022/02/02 21:30:57;;;;;;;9.77;7.57;;;;;;;-142.02;100.00;61695.09;4995113;28;20053;-67
2022/02/02 21:33:23;;;;;;;9.15;6.93;;;;;;;-142.02;100.00;61695.09;5012348;28;20072;-67
2022/02/02 21:35:51;;;;;;;9.18;7.70;;;;;;;-142.02;100.00;61695.09;4975143;28;20054;-67
2022/02/02 21:40:55;;;;;;;13.35;9.88;;;;;;;-142.02;100.00;61695.09;5005636;28;20046;-67
2022/02/02 21:43:22;;;;;;;16.73;10.65;;;;;;;-142.02;100.00;61695.09;5011955;28;20557;-67
2022/02/02 21:45:48;;;;;;;13.80;10.10;;;;;;;-142.02;100.00;61695.09;5012294;28;20128;-67
2022/02/02 21:48:14;;;;;;;16.40;11.43;;;;;;;-142.02;100.00;61695.09;5010777;28;20092;-67
2022/02/02 21:51:02;;;;;;;14.20;10.73;;;;;;;-142.02;100.00;61695.09;5012266;28;20184;-67
2022/02/02 21:53:28;;;;;;;12.43;10.02;;;;;;;-142.02;100.00;61695.09;5012272;28;20679;-67
2022/02/02 21:55:55;;;;;;;21.63;12.07;;;;;;;-142.02;100.00;61695.09;5013998;28;20058;-70
2022/02/02 21:58:21;;;;;;;22.45;12.43;;;;;;;-142.02;100.00;61695.09;5014128;28;20046;-67
2022/02/02 22:00:48;;;;;;;15.80;10.43;;;;;;;-142.02;100.00;61695.09;5011980;28;20057;-67
2022/02/02 22:03:14;;;;;;;20.48;11.32;;;;;;;-142.02;100.00;61695.09;5010705;28;20584;-69
2022/02/02 22:05:40;;;;;;;18.95;11.05;;;;;;;-142.02;100.00;61695.09;4994424;28;20184;-67
2022/02/02 22:08:09;;;;;;;11.48;9.23;;;;;;;-142.02;100.00;61695.09;4978082;28;20084;-67
2022/02/02 22:10:35;;;;;;;16.30;10.55;;;;;;;-142.02;100.00;61695.09;5011272;28;20525;-67
2022/02/02 22:13:02;;;;;;;12.13;9.18;;;;;;;-142.02;100.00;61695.09;5009791;28;20077;-67
2022/02/02 22:15:38;;;;;;;15.80;11.85;;;;;;;-142.02;100.00;61695.09;5011469;28;20048;-66
2022/02/02 22:18:04;;;;;;;10.27;8.30;;;;;;;-142.02;100.00;61695.09;4996175;28;20050;-66
2022/02/02 22:20:30;;;;;;;15.05;8.18;;;;;;;-142.02;100.00;61695.09;4984422;28;20434;-69
2022/02/02 22:22:56;;;;;;;14.90;9.52;;;;;;;-142.02;100.00;61695.09;4981140;28;20042;-67